X  Tanca Dades meteorològiques de l'aviació METAR        LGTS Thessaloniki Macedonia International
Temperatura
28°C Temperatura
21°C Rosada
66% Humitat



Vent
11 KM/H
7 MPH
3 M/S
6 NUS



290°
ONO
Condicions actuals

Mostly Sunny Majoritàriament assolellat
Pressió 1016 (hPa) - 30 (inHg)
Visibilitat 6 (milla) - 10 (km)
Aeroport
Codi aeroport LGTS

Ubicació: Thessaloniki Macedonia International
Distància: 85 (km)

Metar:
METAR LGTS 210650Z 29006KT CAVOK 28/21 Q1016 NOSIG

Temps: 21-06-2024 09:50 EEST